Time;durP1;ratioP1;P1;durP2;ratioP2;P2;SDS_P1;SDS_P2;PMS_P1;PMS_P2;Temp;Humidity;BMP_temperature;BMP_pressure;BME280_temperature;BME280_humidity;BME280_pressure;Samples;Min_cycle;Max_cycle;Signal;HPM_P1;HPM_P2
2022/01/02 00:02:10;;;;;;;41.60;25.77;;;;;;;10.19;81.73;100998.45;2034334;86;30479;-62
2022/01/02 00:05:15;;;;;;;37.33;24.37;;;;;;;10.16;81.70;100995.42;2034428;86;27912;-61
2022/01/02 00:08:17;;;;;;;36.73;24.02;;;;;;;10.15;81.69;100993.67;2058719;86;28789;-60
2022/01/02 00:11:22;;;;;;;31.60;21.25;;;;;;;10.12;81.63;100982.22;2063053;86;31897;-61
2022/01/02 00:14:25;;;;;;;33.28;21.62;;;;;;;10.08;81.56;100981.47;2060767;86;33825;-60
2022/01/02 00:17:30;;;;;;;38.65;21.73;;;;;;;10.05;81.54;100980.23;2035608;86;29772;-60
2022/01/02 00:20:33;;;;;;;33.98;20.85;;;;;;;10.01;81.48;100985.28;2034520;86;27708;-60
2022/01/02 00:23:49;;;;;;;34.55;19.45;;;;;;;9.98;81.46;100983.59;2034667;87;29770;-60
2022/01/02 00:26:45;;;;;;;32.60;19.98;;;;;;;9.95;81.45;100978.80;2033878;86;31387;-60
2022/01/02 00:29:47;;;;;;;30.30;18.62;;;;;;;9.90;81.38;100978.97;2033887;86;33028;-60
2022/01/02 00:32:48;;;;;;;31.65;21.00;;;;;;;9.87;81.35;100977.73;2034258;87;30533;-60
2022/01/02 00:35:50;;;;;;;33.92;21.35;;;;;;;9.83;81.31;100980.14;2017782;87;27807;-60
2022/01/02 00:38:52;;;;;;;37.30;21.75;;;;;;;9.78;81.30;100966.03;2034275;87;28889;-60
2022/01/02 00:42:07;;;;;;;38.35;23.05;;;;;;;9.72;81.32;100956.43;2045965;86;31372;-61
2022/01/02 00:45:22;;;;;;;37.38;22.67;;;;;;;9.65;81.25;100948.20;2063465;86;32936;-60
2022/01/02 00:48:30;;;;;;;46.73;25.97;;;;;;;9.58;81.34;100940.86;2063637;85;30352;-59
2022/01/02 00:51:47;;;;;;;44.25;24.45;;;;;;;9.51;81.40;100934.85;2061723;86;27686;-61
2022/01/02 00:54:46;;;;;;;48.90;26.97;;;;;;;9.43;81.40;100923.09;2063349;85;29661;-61
2022/01/02 00:57:57;;;;;;;49.90;27.25;;;;;;;9.38;81.45;100914.81;2063321;86;31600;-60
2022/01/02 01:01:00;;;;;;;50.40;28.45;;;;;;;9.30;81.48;100915.53;2060442;86;33011;-60
2022/01/02 01:04:03;;;;;;;51.68;28.00;;;;;;;9.23;81.55;100909.52;2053575;86;29885;-61
2022/01/02 01:07:06;;;;;;;45.98;28.60;;;;;;;9.17;81.59;100922.64;2031550;86;27745;-60
2022/01/02 01:10:11;;;;;;;46.10;26.62;;;;;;;9.14;81.66;100921.87;2056169;86;29906;-60
2022/01/02 01:13:12;;;;;;;49.23;26.82;;;;;;;9.08;81.66;100930.98;2056489;86;29825;-60
2022/01/02 01:16:15;;;;;;;51.13;28.35;;;;;;;9.03;81.75;100933.78;2046744;86;32838;-61
2022/01/02 01:19:17;;;;;;;51.18;25.77;;;;;;;9.00;81.71;100935.69;2033966;87;30556;-60
2022/01/02 01:22:20;;;;;;;45.75;26.17;;;;;;;8.94;81.68;100937.63;2034009;87;27605;-60
2022/01/02 01:25:24;;;;;;;51.98;27.02;;;;;;;8.88;81.63;100928.50;2034422;87;29493;-59
2022/01/02 01:28:26;;;;;;;42.33;24.63;;;;;;;8.80;81.62;100914.49;2044819;86;31036;-60
2022/01/02 01:31:27;;;;;;;46.85;25.08;;;;;;;8.75;81.70;100921.80;2072310;85;33195;-60
2022/01/02 01:34:29;;;;;;;51.23;25.82;;;;;;;8.70;81.74;100913.05;2072760;85;30515;-60
2022/01/02 01:37:31;;;;;;;43.15;25.57;;;;;;;8.63;81.66;100905.23;2072054;85;27610;-60
2022/01/02 01:40:50;;;;;;;51.90;28.45;;;;;;;8.56;81.65;100894.78;2052270;85;29875;-60
2022/01/02 01:44:07;;;;;;;37.73;21.93;;;;;;;8.50;81.76;100894.52;2061429;84;31746;-60
2022/01/02 01:46:56;;;;;;;52.80;26.95;;;;;;;8.44;81.71;100886.22;2066274;85;33324;-60
2022/01/02 01:49:58;;;;;;;48.83;24.80;;;;;;;8.40;81.71;100891.70;2057412;85;30454;-59
2022/01/02 01:53:01;;;;;;;50.80;27.98;;;;;;;8.33;81.72;100892.36;2052480;85;28198;-59
2022/01/02 01:56:02;;;;;;;52.78;29.87;;;;;;;8.28;81.67;100887.61;2051855;86;29715;-59
2022/01/02 01:59:05;;;;;;;51.50;27.32;;;;;;;8.24;81.83;100891.29;2060499;85;32278;-59
2022/01/02 02:02:08;;;;;;;52.88;29.40;;;;;;;8.17;81.80;100885.27;2072758;85;33111;-60
2022/01/02 02:05:11;;;;;;;53.63;31.23;;;;;;;8.11;81.92;100892.14;2072542;85;30515;-60
2022/01/02 02:08:13;;;;;;;51.95;30.57;;;;;;;8.04;82.02;100886.08;2072847;85;27710;-60
2022/01/02 02:11:15;;;;;;;43.10;25.77;;;;;;;7.99;82.06;100878.22;2072479;85;29129;-61
2022/01/02 02:14:17;;;;;;;45.45;26.27;;;;;;;7.95;82.04;100882.37;2065728;85;31607;-60
2022/01/02 02:17:19;;;;;;;49.13;27.45;;;;;;;7.88;81.94;100874.53;2051801;85;34256;-61
2022/01/02 02:20:29;;;;;;;51.83;27.42;;;;;;;7.81;81.98;100878.76;2051869;86;30557;-61
2022/01/02 02:23:31;;;;;;;47.45;27.07;;;;;;;7.73;82.18;100877.20;2051934;86;27601;-62
2022/01/02 02:26:34;;;;;;;50.52;27.75;;;;;;;7.68;82.31;100879.12;2052411;85;29242;-61
2022/01/02 02:29:36;;;;;;;53.73;26.80;;;;;;;7.64;82.40;100870.78;2051102;86;32267;-60
2022/01/02 02:32:39;;;;;;;51.73;28.52;;;;;;;7.62;82.45;100863.75;2048709;85;34402;-60
2022/01/02 02:35:44;;;;;;;50.52;26.17;;;;;;;7.58;82.51;100857.64;2049079;86;30444;-60
2022/01/02 02:38:46;;;;;;;47.90;25.15;;;;;;;7.55;82.59;100847.91;2052188;86;27695;-61
2022/01/02 02:41:48;;;;;;;51.18;26.50;;;;;;;7.51;82.63;100839.61;2048730;86;29374;-60
2022/01/02 02:44:58;;;;;;;51.63;26.93;;;;;;;7.46;82.60;100834.86;2048991;85;32551;-60
2022/01/02 02:51:23;;;;;;;;;;;;;;;7.37;82.55;100828.44;2070656;85;30600;-60
2022/01/02 02:54:27;;;;;;;47.17;25.37;;;;;;;7.32;82.52;100821.91;2068434;86;27788;-60
2022/01/02 02:57:31;;;;;;;46.58;24.23;;;;;;;7.25;82.57;100817.20;2068277;86;29440;-60
2022/01/02 03:00:33;;;;;;;47.27;26.20;;;;;;;7.20;82.60;100820.44;2068269;86;31083;-60
2022/01/02 03:03:35;;;;;;;50.17;25.25;;;;;;;7.17;82.64;100815.23;2057712;86;33238;-60
2022/01/02 03:06:37;;;;;;;46.88;23.30;;;;;;;7.11;82.68;100801.61;2038144;87;30344;-61
2022/01/02 03:09:42;;;;;;;37.90;22.13;;;;;;;7.10;82.71;100803.86;2023548;88;27746;-60
2022/01/02 03:12:43;;;;;;;42.38;21.20;;;;;;;7.05;82.66;100784.89;2035738;86;30002;-58
2022/01/02 03:15:45;;;;;;;40.05;21.42;;;;;;;7.00;82.73;100774.38;2034654;87;31896;-60
2022/01/02 03:18:47;;;;;;;40.70;22.27;;;;;;;6.99;82.74;100763.30;2034550;87;34323;-60
2022/01/02 03:21:49;;;;;;;41.63;20.45;;;;;;;6.96;82.77;100758.05;2041267;86;29752;-60
2022/01/02 03:24:52;;;;;;;31.40;18.30;;;;;;;6.93;82.88;100756.35;2055602;86;27742;-59
2022/01/02 03:27:54;;;;;;;37.00;18.07;;;;;;;6.91;83.04;100742.67;2017129;87;29092;-59
2022/01/02 03:30:56;;;;;;;39.40;19.02;;;;;;;6.90;83.07;100736.92;2040127;85;32353;-60
2022/01/02 03:33:58;;;;;;;37.33;20.25;;;;;;;6.90;83.03;100732.94;2035427;86;33382;-59
2022/01/02 03:37:00;;;;;;;37.00;20.52;;;;;;;6.88;83.01;100723.63;2034538;87;29942;-60
2022/01/02 03:40:05;;;;;;;36.28;19.60;;;;;;;6.86;83.02;100708.63;2034456;86;27702;-59
2022/01/02 03:43:07;;;;;;;;;;;;;;;6.84;83.03;100704.21;2054565;86;29271;-60
2022/01/02 03:46:09;;;;;;;35.10;18.12;;;;;;;6.81;83.02;100694.11;2063457;85;32196;-60
2022/01/02 03:49:11;;;;;;;37.85;19.70;;;;;;;6.78;83.06;100696.85;2063488;85;33303;-60
2022/01/02 03:52:13;;;;;;;38.83;22.15;;;;;;;6.76;83.12;100683.59;2054398;85;30198;-60
2022/01/02 03:55:15;;;;;;;34.85;20.10;;;;;;;6.76;83.16;100676.05;2034793;86;27651;-58
2022/01/02 03:58:17;;;;;;;36.03;19.75;;;;;;;6.74;83.12;100674.77;2034282;86;29072;-61
2022/01/02 04:01:19;;;;;;;34.38;20.48;;;;;;;6.73;83.12;100668.14;2034028;87;31518;-61
2022/01/02 04:04:20;;;;;;;34.18;20.72;;;;;;;6.72;83.12;100666.39;2034379;87;33343;-61
2022/01/02 04:07:25;;;;;;;38.53;19.92;;;;;;;6.70;83.09;100663.78;2039954;86;29696;-61
2022/01/02 04:10:35;;;;;;;34.88;19.10;;;;;;;6.68;83.12;100654.96;2063554;86;28203;-61
2022/01/02 04:13:37;;;;;;;33.90;19.02;;;;;;;6.67;83.10;100646.55;2063057;85;28697;-61
2022/01/02 04:16:39;;;;;;;33.20;18.73;;;;;;;6.63;83.07;100632.91;2063373;86;30815;-61
2022/01/02 04:19:41;;;;;;;31.93;19.10;;;;;;;6.61;83.08;100632.11;2062866;86;34103;-60
2022/01/02 04:22:43;;;;;;;24.47;15.75;;;;;;;6.59;83.01;100625.47;2039432;86;30417;-61
2022/01/02 04:25:45;;;;;;;28.65;16.85;;;;;;;6.55;83.00;100609.16;2034405;87;28049;-61
2022/01/02 04:28:48;;;;;;;31.42;16.97;;;;;;;6.53;83.03;100598.58;2034059;86;29278;-61
2022/01/02 04:31:50;;;;;;;29.32;17.32;;;;;;;6.52;83.07;100602.16;2067961;85;31036;-60
2022/01/02 04:34:52;;;;;;;33.48;17.25;;;;;;;6.51;83.09;100592.89;2072945;85;33363;-60
2022/01/02 04:37:54;;;;;;;30.72;16.80;;;;;;;6.49;83.11;100592.91;2069263;85;29323;-60
2022/01/02 04:40:56;;;;;;;28.05;17.55;;;;;;;6.49;83.17;100582.27;2052756;86;27731;-60
2022/01/02 04:43:58;;;;;;;28.95;17.05;;;;;;;6.49;83.22;100578.28;2052234;85;29736;-60
2022/01/02 04:47:00;;;;;;;28.27;17.05;;;;;;;6.50;83.18;100572.52;2052316;86;31424;-60
2022/01/02 04:50:02;;;;;;;27.77;17.12;;;;;;;6.49;83.22;100566.30;2069513;85;33347;-60
2022/01/02 04:53:04;;;;;;;34.90;16.82;;;;;;;6.48;83.16;100565.88;2072752;85;30505;-60
2022/01/02 04:56:06;;;;;;;34.05;17.00;;;;;;;6.48;83.15;100551.25;2072626;85;27661;-61
2022/01/02 04:59:08;;;;;;;28.42;16.20;;;;;;;6.46;83.15;100552.22;2072857;85;29026;-60
2022/01/02 05:02:10;;;;;;;26.30;15.83;;;;;;;6.48;83.22;100573.02;2072446;85;32286;-60
2022/01/02 05:05:11;;;;;;;28.15;16.20;;;;;;;6.48;83.10;100582.33;2072234;85;32814;-60
2022/01/02 05:08:13;;;;;;;24.90;17.17;;;;;;;6.47;83.11;100590.75;2072844;85;29249;-60
2022/01/02 05:11:15;;;;;;;29.00;15.93;;;;;;;6.47;83.04;100600.54;2072764;85;27654;-60
2022/01/02 05:14:17;;;;;;;27.95;17.25;;;;;;;6.45;83.02;100581.97;2073115;85;29180;-61
2022/01/02 05:17:18;;;;;;;26.35;15.48;;;;;;;6.43;83.04;100582.90;2060300;85;32207;-61
2022/01/02 05:20:20;;;;;;;26.77;15.32;;;;;;;6.42;83.06;100579.83;2052145;85;34261;-61
2022/01/02 05:23:22;;;;;;;26.57;15.13;;;;;;;6.41;83.05;100562.11;2052275;86;29433;-61
2022/01/02 05:26:23;;;;;;;27.20;16.48;;;;;;;6.38;83.05;100555.95;2052838;85;27701;-59
2022/01/02 05:29:25;;;;;;;33.75;20.62;;;;;;;6.37;83.04;100538.72;2052189;85;29195;-60
2022/01/02 05:32:27;;;;;;;26.07;16.00;;;;;;;6.34;83.07;100534.80;2036712;86;32208;-60
2022/01/02 05:35:31;;;;;;;24.70;15.83;;;;;;;6.33;83.18;100523.74;2034383;86;32820;-60
2022/01/02 05:38:33;;;;;;;21.57;13.83;;;;;;;6.35;83.27;100536.55;2059782;86;29552;-60
2022/01/02 05:41:34;;;;;;;24.07;14.83;;;;;;;6.38;83.33;100525.83;2063536;86;27648;-60
2022/01/02 05:44:36;;;;;;;25.85;15.53;;;;;;;6.39;83.32;100521.77;2063648;86;28985;-61
2022/01/02 05:47:38;;;;;;;25.30;14.93;;;;;;;6.41;83.31;100522.19;2063554;86;31388;-61
2022/01/02 05:50:40;;;;;;;26.42;15.98;;;;;;;6.43;83.36;100515.05;2063002;85;34304;-61
2022/01/02 05:53:42;;;;;;;23.57;14.53;;;;;;;6.45;83.30;100519.86;2063247;85;30575;-61
2022/01/02 05:56:44;;;;;;;28.47;15.30;;;;;;;6.44;83.21;100519.01;2063417;85;27650;-62
2022/01/02 05:59:45;;;;;;;24.55;14.85;;;;;;;6.45;83.21;100518.53;2063370;86;29879;-62
2022/01/02 06:02:47;;;;;;;24.32;15.03;;;;;;;6.43;83.19;100503.06;2063022;86;32444;-62
2022/01/02 06:05:49;;;;;;;28.67;14.83;;;;;;;6.43;83.17;100499.97;2043862;85;33823;-62
2022/01/02 06:08:50;;;;;;;26.68;15.45;;;;;;;6.41;83.16;100483.16;2034363;86;29341;-61
2022/01/02 06:11:52;;;;;;;23.57;15.28;;;;;;;6.39;83.17;100461.05;2034092;87;27673;-61
2022/01/02 06:14:54;;;;;;;22.35;14.68;;;;;;;6.38;83.20;100464.15;2043827;86;29863;-61
2022/01/02 06:17:56;;;;;;;21.77;14.83;;;;;;;6.38;83.27;100461.48;2063103;85;31581;-61
2022/01/02 06:20:58;;;;;;;24.92;14.20;;;;;;;6.39;83.38;100452.59;2063085;86;34076;-61
2022/01/02 06:23:59;;;;;;;28.12;15.50;;;;;;;6.40;83.40;100448.16;2062832;86;29497;-61
2022/01/02 06:27:01;;;;;;;28.35;15.58;;;;;;;6.41;83.37;100443.25;2034134;86;27713;-61
2022/01/02 06:30:06;;;;;;;26.77;15.18;;;;;;;6.42;83.38;100448.09;2033962;87;29912;-61
2022/01/02 06:33:08;;;;;;;30.55;16.20;;;;;;;6.42;83.35;100441.45;2047938;85;32267;-61
2022/01/02 06:36:09;;;;;;;27.05;15.55;;;;;;;6.44;83.35;100440.94;2063241;85;33378;-62
2022/01/02 06:39:11;;;;;;;30.62;14.98;;;;;;;6.43;83.32;100440.09;2069583;85;29700;-61
2022/01/02 06:42:13;;;;;;;24.80;14.38;;;;;;;6.43;83.30;100441.42;2069416;86;27634;-59
2022/01/02 06:45:15;;;;;;;23.95;14.00;;;;;;;6.44;83.23;100436.95;2063284;86;29972;-59
2022/01/02 06:48:17;;;;;;;26.02;13.62;;;;;;;6.41;83.08;100436.59;2048991;86;32031;-60
2022/01/02 06:51:19;;;;;;;23.87;14.10;;;;;;;6.39;83.08;100439.76;2048504;86;33665;-61
2022/01/02 06:54:21;;;;;;;26.60;13.10;;;;;;;6.38;83.08;100436.69;2048976;85;30444;-61
2022/01/02 06:57:23;;;;;;;24.98;13.60;;;;;;;6.37;83.05;100442.45;2068981;86;27746;-60
2022/01/02 07:00:25;;;;;;;20.30;13.58;;;;;;;6.36;82.99;100434.52;2069544;86;29227;-61
2022/01/02 07:03:27;;;;;;;22.80;13.03;;;;;;;6.33;82.93;100435.94;2069862;85;31975;-61
2022/01/02 07:06:29;;;;;;;20.60;13.30;;;;;;;6.30;82.93;100439.58;2069309;86;34098;-60
2022/01/02 07:09:31;;;;;;;24.00;13.03;;;;;;;6.30;82.91;100437.35;2069029;86;30695;-60
2022/01/02 07:12:34;;;;;;;23.25;12.80;;;;;;;6.30;82.96;100442.67;2050840;85;28090;-60
2022/01/02 07:15:36;;;;;;;23.47;12.75;;;;;;;6.29;82.88;100432.51;2048653;86;29710;-60
2022/01/02 07:18:38;;;;;;;18.35;11.00;;;;;;;6.28;82.81;100427.25;2048788;86;32386;-60
2022/01/02 07:21:40;;;;;;;21.20;10.78;;;;;;;6.24;82.80;100414.47;2048942;85;33323;-61
2022/01/02 07:24:47;;;;;;;21.27;11.43;;;;;;;6.22;82.90;100413.20;2064830;86;30050;-61
2022/01/02 07:27:45;;;;;;;15.78;10.82;;;;;;;6.21;82.94;100403.47;2069300;86;27584;-60
2022/01/02 07:30:47;;;;;;;19.25;9.65;;;;;;;6.22;82.84;100406.98;2069575;85;28444;-61
2022/01/02 07:33:49;;;;;;;17.12;11.65;;;;;;;6.21;82.76;100410.13;2063140;85;30154;-58
2022/01/02 07:36:51;;;;;;;17.10;11.88;;;;;;;6.19;82.65;100409.30;2052132;85;33357;-57
2022/01/02 07:39:52;;;;;;;17.02;11.90;;;;;;;6.20;82.69;100403.53;2051767;86;30243;-57
2022/01/02 07:42:54;;;;;;;19.95;10.65;;;;;;;6.23;82.71;100403.41;2054680;85;27685;-57
2022/01/02 07:45:56;;;;;;;18.62;10.82;;;;;;;6.26;82.73;100387.84;2072757;85;29471;-57
2022/01/02 07:48:58;;;;;;;16.02;9.90;;;;;;;6.29;82.71;100386.42;2072622;85;32437;-57
2022/01/02 07:52:00;;;;;;;16.10;10.55;;;;;;;6.33;82.75;100383.61;2072289;85;34365;-57
2022/01/02 07:55:02;;;;;;;16.23;10.23;;;;;;;6.38;82.82;100382.98;2057742;85;30517;-57
2022/01/02 07:58:03;;;;;;;14.47;9.93;;;;;;;6.47;82.88;100386.30;2052480;86;27630;-60
2022/01/02 08:01:05;;;;;;;14.20;10.23;;;;;;;6.54;82.92;100380.73;2052240;86;29308;-60
2022/01/02 08:04:07;;;;;;;14.85;9.83;;;;;;;6.64;83.02;100372.00;2059960;85;32194;-59
2022/01/02 08:07:09;;;;;;;14.95;11.08;;;;;;;6.74;83.02;100381.00;2072256;85;34175;-60
2022/01/02 08:10:11;;;;;;;17.07;11.18;;;;;;;6.84;83.04;100383.32;2073044;85;29905;-59
2022/01/02 08:13:13;;;;;;;263.68;178.50;;;;;;;6.97;83.16;100384.23;2072744;85;27679;-59
2022/01/02 08:16:15;;;;;;;29.12;19.85;;;;;;;7.12;83.38;100377.53;2072755;85;28454;-59
2022/01/02 08:19:17;;;;;;;23.02;14.18;;;;;;;7.26;83.42;100373.93;2065525;85;32371;-59
2022/01/02 08:22:20;;;;;;;21.95;12.43;;;;;;;7.42;83.46;100374.28;2052017;85;33819;-60
2022/01/02 08:25:22;;;;;;;18.57;12.00;;;;;;;7.60;83.56;100371.88;2052268;86;30511;-60
2022/01/02 08:28:26;;;;;;;20.15;13.13;;;;;;;7.77;83.68;100373.06;2052141;84;27700;-60
2022/01/02 08:31:32;;;;;;;19.80;12.47;;;;;;;7.90;83.67;100379.20;2070970;84;28776;-61
2022/01/02 08:34:35;;;;;;;15.63;11.18;;;;;;;8.04;83.59;100381.36;2068033;85;31956;-60
2022/01/02 08:37:36;;;;;;;17.02;11.68;;;;;;;8.14;83.50;100379.21;2052092;86;34159;-63
2022/01/02 08:40:39;;;;;;;16.40;11.43;;;;;;;8.24;83.51;100363.72;2055433;85;30514;-62
2022/01/02 08:43:43;;;;;;;22.40;11.83;;;;;;;8.31;83.33;100359.86;2060671;85;27718;-61
2022/01/02 08:46:45;;;;;;;19.85;12.07;;;;;;;8.40;83.02;100350.62;2044229;86;28816;-62
2022/01/02 08:49:46;;;;;;;19.05;12.53;;;;;;;8.47;83.05;100348.13;2067977;85;31395;-63
2022/01/02 08:52:48;;;;;;;20.15;12.37;;;;;;;8.56;83.13;100344.69;2072705;85;34236;-62
2022/01/02 08:55:50;;;;;;;20.82;14.07;;;;;;;8.66;82.99;100347.41;2072662;85;29919;-63
2022/01/02 08:58:52;;;;;;;23.15;13.30;;;;;;;8.76;82.90;100350.58;2072846;85;27800;-67
2022/01/02 09:01:56;;;;;;;19.75;13.35;;;;;;;8.86;82.83;100349.70;2072664;85;29054;-67
2022/01/02 09:04:58;;;;;;;21.68;13.43;;;;;;;8.99;82.85;100351.39;2072544;85;32171;-69
2022/01/02 09:08:00;;;;;;;20.68;13.85;;;;;;;9.10;82.73;100341.14;2072621;85;33890;-66
2022/01/02 09:11:02;;;;;;;24.40;13.60;;;;;;;9.21;82.65;100329.50;2072535;85;29339;-62
2022/01/02 09:14:04;;;;;;;19.12;12.70;;;;;;;9.33;82.60;100331.23;2072845;85;27939;-62
2022/01/02 09:17:06;;;;;;;19.00;11.45;;;;;;;9.42;82.34;100321.00;2071555;85;28686;-62
2022/01/02 09:20:10;;;;;;;19.35;10.08;;;;;;;9.52;82.25;100317.45;2052127;86;31535;-62
2022/01/02 09:23:12;;;;;;;18.95;10.20;;;;;;;9.63;81.96;100310.73;2052071;86;33015;-64
2022/01/02 09:26:14;;;;;;;16.97;10.75;;;;;;;9.73;81.82;100309.39;2052471;86;29368;-64
2022/01/02 09:29:16;;;;;;;16.05;10.25;;;;;;;9.84;81.79;100302.21;2058598;84;28284;-72
2022/01/02 09:32:18;;;;;;;17.00;9.85;;;;;;;9.94;81.18;100289.23;2068286;84;28358;-64
2022/01/02 09:35:20;;;;;;;15.95;9.88;;;;;;;10.01;81.18;100284.01;2037430;86;31105;-69
2022/01/02 09:38:22;;;;;;;21.87;11.08;;;;;;;10.10;81.14;100285.38;2038862;87;33071;-67
2022/01/02 09:41:27;;;;;;;22.25;12.20;;;;;;;10.16;80.72;100292.64;2033498;87;29548;-69
2022/01/02 09:44:30;;;;;;;23.18;12.43;;;;;;;10.11;80.62;100279.94;2034747;87;27619;-64
2022/01/02 09:47:32;;;;;;;21.70;12.73;;;;;;;10.23;80.46;100296.38;2033635;86;28673;-67
2022/01/02 09:50:35;;;;;;;27.80;14.20;;;;;;;10.24;80.18;100293.61;2033480;86;31849;-62
2022/01/02 09:53:47;;;;;;;24.87;14.38;;;;;;;10.31;80.16;100276.77;2025409;87;33410;-68
2022/01/02 09:56:48;;;;;;;25.57;14.18;;;;;;;10.41;80.28;100289.27;2024424;87;30138;-71
2022/01/02 09:59:50;;;;;;;30.32;16.05;;;;;;;10.55;80.08;100290.79;2025310;87;28258;-69
2022/01/02 10:03:04;;;;;;;29.80;13.98;;;;;;;10.71;80.16;100288.23;2023890;87;28683;-73
2022/01/02 10:06:06;;;;;;;26.82;12.00;;;;;;;10.83;79.86;100293.45;2023296;86;31809;-69
2022/01/02 10:09:18;;;;;;;36.75;13.62;;;;;;;10.95;79.64;100291.92;2034476;86;33592;-70
2022/01/02 10:12:29;;;;;;;26.52;13.35;;;;;;;11.05;79.47;100284.28;2026711;87;30133;-68
2022/01/02 10:15:32;;;;;;;24.32;12.90;;;;;;;11.16;79.21;100277.91;2033512;87;27661;-69
2022/01/02 10:18:34;;;;;;;22.25;12.53;;;;;;;11.27;79.17;100279.98;2032994;87;28865;-69
2022/01/02 10:21:39;;;;;;;28.55;15.63;;;;;;;11.36;78.96;100262.55;2056449;86;30991;-69
2022/01/02 10:24:47;;;;;;;23.70;13.53;;;;;;;11.45;78.66;100254.47;2057614;86;33014;-68
2022/01/02 10:27:46;;;;;;;24.65;10.78;;;;;;;11.50;78.26;100253.77;2061786;85;29344;-65
2022/01/02 10:30:51;;;;;;;19.67;10.55;;;;;;;11.56;78.22;100244.05;2062122;86;27672;-67
2022/01/02 10:33:56;;;;;;;24.37;11.33;;;;;;;11.60;77.73;100237.54;2062967;84;29656;-67
2022/01/02 10:36:57;;;;;;;27.17;15.48;;;;;;;11.63;77.74;100250.79;2058856;84;31923;-69
2022/01/02 10:39:59;;;;;;;29.87;17.32;;;;;;;11.68;77.60;100252.76;2058758;86;32989;-67
2022/01/02 10:43:05;;;;;;;25.92;14.13;;;;;;;11.76;77.82;100244.28;2060000;86;29485;-66
2022/01/02 10:46:08;;;;;;;30.40;14.63;;;;;;;11.85;77.48;100238.88;2060255;84;27993;-68
2022/01/02 10:49:10;;;;;;;23.60;12.47;;;;;;;11.90;77.04;100240.84;2059660;86;28651;-67
2022/01/02 10:52:28;;;;;;;26.30;12.70;;;;;;;11.93;76.99;100230.39;2059727;86;30628;-69
2022/01/02 10:55:30;;;;;;;24.95;12.07;;;;;;;11.94;76.73;100232.97;2055195;85;32978;-71
2022/01/02 10:58:33;;;;;;;28.27;14.98;;;;;;;11.95;76.63;100217.75;2039622;84;29486;-68
2022/01/02 11:01:35;;;;;;;24.55;15.13;;;;;;;11.98;76.75;100215.78;2036754;86;27692;-66
2022/01/02 11:04:40;;;;;;;23.35;14.47;;;;;;;12.02;76.58;100205.72;2036611;86;28739;-64
2022/01/02 11:07:49;;;;;;;;;;;;;;;12.09;76.43;100208.92;2035965;86;31938;-67
2022/01/02 11:10:51;;;;;;;19.35;9.83;;;;;;;12.16;76.41;100196.87;2050324;86;32436;-66
2022/01/02 11:13:53;;;;;;;18.57;10.38;;;;;;;12.20;76.38;100178.76;2056266;86;29321;-65
2022/01/02 11:16:57;;;;;;;18.82;10.15;;;;;;;12.25;76.13;100181.55;2057190;86;27704;-70
2022/01/02 11:19:59;;;;;;;17.45;10.30;;;;;;;12.29;75.84;100180.92;2055248;86;28789;-69
2022/01/02 11:23:36;;;;;;;20.82;13.62;;;;;;;12.31;75.79;100163.75;2049597;86;30972;-72
2022/01/02 11:27:04;;;;;;;22.07;17.32;;;;;;;12.37;75.69;100168.38;2056248;86;32986;-75
2022/01/02 11:30:34;;;;;;;19.05;14.50;;;;;;;12.40;75.63;100158.31;2055646;86;30177;-71
2022/01/02 11:33:40;;;;;;;19.70;11.97;;;;;;;12.43;75.47;100162.16;2079772;84;27880;-73
2022/01/02 11:36:42;;;;;;;38.00;21.90;;;;;;;12.45;74.99;100156.22;2097027;84;28885;-69
2022/01/02 11:40:00;;;;;;;51.48;31.97;;;;;;;12.43;75.17;100151.41;2071937;84;31136;-70
2022/01/02 11:43:01;;;;;;;30.45;17.70;;;;;;;12.44;75.31;100145.55;2038995;87;33002;-70
2022/01/02 11:46:31;;;;;;;35.03;21.85;;;;;;;12.42;75.18;100151.02;2039314;86;29334;-71
2022/01/02 11:49:43;;;;;;;13.43;9.78;;;;;;;12.39;74.89;100156.58;2014020;87;27737;-69
2022/01/02 11:52:50;;;;;;;13.65;9.40;;;;;;;12.30;74.45;100147.73;2034347;87;28631;-70
2022/01/02 11:55:54;;;;;;;24.37;14.35;;;;;;;12.27;74.53;100134.48;2025773;86;31224;-69
2022/01/02 11:58:55;;;;;;;34.10;17.85;;;;;;;12.28;74.65;100132.19;2034547;87;32994;-70
2022/01/02 12:01:58;;;;;;;33.10;18.20;;;;;;;12.29;74.75;100129.39;2034037;87;29323;-71
2022/01/02 12:08:08;;;;;;;20.08;12.70;;;;;;;12.34;74.71;100125.58;2033153;87;28889;-71
2022/01/02 12:11:33;;;;;;;24.70;12.55;;;;;;;12.36;74.66;100129.89;2034240;86;31901;-69
2022/01/02 12:14:53;;;;;;;17.27;10.28;;;;;;;12.39;74.42;100131.55;1921213;90;32973;-71
2022/01/02 12:18:16;;;;;;;17.50;10.68;;;;;;;12.39;74.49;100127.52;1943086;90;30128;-71
2022/01/02 12:21:18;;;;;;;15.05;9.08;;;;;;;12.42;74.33;100120.59;1946377;91;27770;-69
2022/01/02 12:24:25;;;;;;;11.75;8.13;;;;;;;12.42;74.24;100117.44;1948935;91;28649;-69
2022/01/02 12:27:27;;;;;;;12.15;7.90;;;;;;;12.40;74.01;100117.16;1940711;91;31077;-69
2022/01/02 12:30:29;;;;;;;17.07;7.80;;;;;;;12.37;73.89;100104.75;1941283;90;33149;-69
2022/01/02 12:33:31;;;;;;;8.58;6.20;;;;;;;12.38;73.86;100112.36;1941249;90;30111;-70
2022/01/02 12:36:36;;;;;;;13.00;7.37;;;;;;;12.38;73.88;100113.70;1941593;91;27814;-71
2022/01/02 12:39:40;;;;;;;19.48;10.58;;;;;;;12.41;73.75;100103.62;1951035;90;29515;-68
2022/01/02 12:42:43;;;;;;;22.87;13.32;;;;;;;12.41;73.66;100099.59;1949451;89;31237;-70
2022/01/02 12:45:46;;;;;;;16.20;9.75;;;;;;;12.41;73.56;100092.88;1949540;91;33631;-71
2022/01/02 12:48:48;;;;;;;17.17;10.78;;;;;;;12.42;73.60;100090.58;1912781;88;29357;-70
2022/01/02 12:51:54;;;;;;;18.60;11.80;;;;;;;12.45;73.56;100092.20;2015541;86;27728;-71
2022/01/02 12:54:59;;;;;;;15.80;9.53;;;;;;;12.48;73.51;100084.45;2036364;87;29851;-73
2022/01/02 12:58:06;;;;;;;16.17;10.88;;;;;;;12.48;73.19;100073.70;2039264;87;31039;-69
2022/01/02 13:01:07;;;;;;;24.05;15.63;;;;;;;12.50;73.25;100079.36;2039525;87;32974;-75
2022/01/02 13:04:09;;;;;;;35.30;25.97;;;;;;;12.53;73.10;100082.33;2040172;87;29326;-70
2022/01/02 13:07:14;;;;;;;44.77;32.67;;;;;;;12.55;72.94;100071.89;2039853;87;27732;-70
2022/01/02 13:10:15;;;;;;;29.30;21.00;;;;;;;12.58;72.65;100055.55;2041036;86;28718;-68
2022/01/02 13:13:31;;;;;;;25.75;17.25;;;;;;;12.58;72.65;100055.55;2034115;86;31849;-69
2022/01/02 13:16:32;;;;;;;30.17;18.62;;;;;;;12.60;72.67;100051.44;2033776;87;33012;-70
2022/01/02 13:19:40;;;;;;;24.82;18.57;;;;;;;12.58;72.48;100050.17;2033612;86;29312;-70
2022/01/02 13:22:53;;;;;;;19.42;13.40;;;;;;;12.55;72.37;100042.33;2063535;86;27662;-69
2022/01/02 13:25:55;;;;;;;19.37;12.50;;;;;;;12.51;72.52;100037.22;2027472;87;29713;-70
2022/01/02 13:28:59;;;;;;;52.80;28.25;;;;;;;12.48;72.44;100037.44;2039146;87;31006;-72
2022/01/02 13:32:17;;;;;;;51.83;27.93;;;;;;;12.42;72.03;100033.28;2063778;85;33586;-72
2022/01/02 13:35:24;;;;;;;51.70;27.50;;;;;;;12.38;72.34;100027.73;1995337;88;29511;-74
2022/01/02 13:38:26;;;;;;;61.25;31.00;;;;;;;12.31;72.05;100017.36;2006524;88;27791;-68
2022/01/02 13:41:28;;;;;;;54.55;27.80;;;;;;;12.26;72.09;100006.52;2004444;88;29931;-69
2022/01/02 13:44:48;;;;;;;79.62;48.80;;;;;;;12.23;72.12;100004.02;2006415;88;31051;-68
2022/01/02 13:47:51;;;;;;;60.73;36.48;;;;;;;12.16;72.02;99993.63;2006637;88;33728;-67
2022/01/02 13:50:58;;;;;;;21.87;13.53;;;;;;;12.12;72.00;99993.46;1995737;89;29354;-72
2022/01/02 13:53:59;;;;;;;24.23;14.43;;;;;;;12.08;71.99;99995.09;2006373;88;27901;-68
2022/01/02 13:57:04;;;;;;;30.92;17.12;;;;;;;12.04;71.95;100002.45;2006421;88;28624;-68
2022/01/02 14:00:22;;;;;;;50.92;25.60;;;;;;;12.00;71.87;99997.75;2006687;88;31045;-67
2022/01/02 14:03:37;;;;;;;58.68;27.13;;;;;;;11.98;71.98;99985.35;1995605;89;32960;-69
2022/01/02 14:06:40;;;;;;;27.25;13.88;;;;;;;11.92;71.96;99970.45;2006398;88;29531;-70
2022/01/02 14:09:51;;;;;;;29.98;13.70;;;;;;;11.89;71.79;99976.50;2001420;89;27705;-70
2022/01/02 14:12:57;;;;;;;18.15;10.80;;;;;;;11.86;71.99;99973.53;2001744;87;29473;-67